createdAt,value
2018-01-30T00:00:53.417Z,1010.37
2018-01-30T00:01:59.558Z,1010.47
2018-01-30T00:03:05.692Z,1010.47
2018-01-30T00:04:11.869Z,1010.41
2018-01-30T00:05:18.452Z,1010.47
2018-01-30T00:06:24.096Z,1010.40
2018-01-30T00:07:30.753Z,1010.42
2018-01-30T00:08:36.879Z,1010.45
2018-01-30T00:09:42.567Z,1010.49
2018-01-30T00:10:48.657Z,1010.49
2018-01-30T00:11:54.795Z,1010.53
2018-01-30T00:13:00.931Z,1010.45
2018-01-30T00:14:07.087Z,1010.43
2018-01-30T00:15:13.692Z,1010.44
2018-01-30T00:16:19.350Z,1010.42
2018-01-30T00:17:25.463Z,1010.43
2018-01-30T00:18:31.597Z,1010.41
2018-01-30T00:19:37.753Z,1010.47
2018-01-30T00:20:43.871Z,1010.45
2018-01-30T00:21:49.984Z,1010.45
2018-01-30T00:22:56.128Z,1010.56
2018-01-30T00:24:02.276Z,1010.56
2018-01-30T00:25:08.373Z,1010.60
2018-01-30T00:26:14.989Z,1010.58
2018-01-30T00:27:20.627Z,1010.62
2018-01-30T00:28:26.759Z,1010.52
2018-01-30T00:29:32.906Z,1010.53
2018-01-30T00:30:39.048Z,1010.57
2018-01-30T00:31:45.127Z,1010.56
2018-01-30T00:32:51.252Z,1010.47
2018-01-30T00:33:57.374Z,1010.53
2018-01-30T00:35:03.519Z,1010.47
2018-01-30T00:36:09.626Z,1010.52
2018-01-30T00:37:15.744Z,1010.45
2018-01-30T00:38:21.855Z,1010.47
2018-01-30T00:39:28.008Z,1010.58
2018-01-30T00:40:34.126Z,1010.59
2018-01-30T00:41:40.236Z,1010.63
2018-01-30T00:42:46.367Z,1010.63
2018-01-30T00:43:52.466Z,1010.70
2018-01-30T00:44:58.620Z,1010.76
2018-01-30T00:46:04.709Z,1010.83
2018-01-30T00:47:10.830Z,1010.88
2018-01-30T00:48:16.953Z,1010.88
2018-01-30T00:49:23.180Z,1010.89
2018-01-30T00:50:29.182Z,1010.84
2018-01-30T00:51:35.488Z,1010.88
2018-01-30T00:52:41.414Z,1010.97
2018-01-30T00:53:48.031Z,1011.03
2018-01-30T00:54:53.662Z,1011.02
2018-01-30T00:55:59.770Z,1011.03
2018-01-30T00:57:05.863Z,1011.05
2018-01-30T00:58:11.983Z,1011.09
2018-01-30T00:59:18.592Z,1011.08
2018-01-30T01:00:24.239Z,1011.17
2018-01-30T01:01:30.810Z,1011.12
2018-01-30T01:02:36.425Z,1011.13
2018-01-30T01:03:42.545Z,1011.26
2018-01-30T01:04:48.678Z,1011.19
2018-01-30T01:05:54.763Z,1011.21
2018-01-30T01:07:00.876Z,1011.19
2018-01-30T01:08:06.992Z,1011.15
2018-01-30T01:09:13.109Z,1011.22
2018-01-30T01:10:19.232Z,1011.26
2018-01-30T01:11:25.328Z,1011.29
2018-01-30T01:12:31.430Z,1011.27
2018-01-30T01:13:37.549Z,1011.26
2018-01-30T01:14:43.687Z,1011.32
2018-01-30T01:15:49.756Z,1011.38
2018-01-30T01:16:55.874Z,1011.33
2018-01-30T01:18:02.001Z,1011.38
2018-01-30T01:19:08.093Z,1011.30
2018-01-30T01:20:14.219Z,1011.31
2018-01-30T01:21:20.307Z,1011.40
2018-01-30T01:22:26.412Z,1011.41
2018-01-30T01:23:32.517Z,1011.46
2018-01-30T01:24:38.647Z,1011.44
2018-01-30T01:25:44.728Z,1011.47
2018-01-30T01:26:50.828Z,1011.44
2018-01-30T01:27:56.932Z,1011.42
2018-01-30T01:29:03.048Z,1011.43
2018-01-30T01:30:09.156Z,1011.41
2018-01-30T01:31:15.250Z,1011.40
2018-01-30T01:32:21.346Z,1011.38
2018-01-30T01:33:27.448Z,1011.41
2018-01-30T01:34:33.559Z,1011.50
2018-01-30T01:35:40.135Z,1011.49
2018-01-30T01:36:45.730Z,1011.53
2018-01-30T01:37:51.830Z,1011.48
2018-01-30T01:38:57.935Z,1011.43
2018-01-30T01:40:04.070Z,1011.47
2018-01-30T01:41:10.118Z,1011.53
2018-01-30T01:42:16.211Z,1011.51
2018-01-30T01:43:22.320Z,1011.51
2018-01-30T01:44:28.416Z,1011.45
2018-01-30T01:45:34.547Z,1011.52
2018-01-30T01:46:40.615Z,1011.49
2018-01-30T01:47:46.709Z,1011.42
2018-01-30T01:48:52.796Z,1011.39
2018-01-30T01:49:58.924Z,1011.36
2018-01-30T01:51:04.987Z,1011.39
2018-01-30T01:52:11.159Z,1011.39
2018-01-30T01:53:17.190Z,1011.41
2018-01-30T01:54:23.296Z,1011.38
2018-01-30T01:55:29.404Z,1011.51
2018-01-30T01:56:35.467Z,1011.54
2018-01-30T01:57:41.566Z,1011.50
2018-01-30T01:58:47.663Z,1011.53
2018-01-30T01:59:53.799Z,1011.55
2018-01-30T02:00:59.855Z,1011.60
2018-01-30T02:02:05.945Z,1011.64
2018-01-30T02:03:12.532Z,1011.64
2018-01-30T02:04:18.119Z,1011.65
2018-01-30T02:05:24.226Z,1011.68
2018-01-30T02:06:30.311Z,1011.69
2018-01-30T02:07:36.391Z,1011.68
2018-01-30T02:08:42.477Z,1011.64
2018-01-30T02:09:48.594Z,1011.71
2018-01-30T02:10:54.665Z,1011.66
2018-01-30T02:12:00.758Z,1011.68
2018-01-30T02:13:07.174Z,1011.68
2018-01-30T02:14:12.943Z,1011.67
2018-01-30T02:15:19.045Z,1011.66
2018-01-30T02:16:25.102Z,1011.68
2018-01-30T02:17:31.214Z,1011.63
2018-01-30T02:18:37.775Z,1011.65
2018-01-30T02:19:43.370Z,1011.70
2018-01-30T02:20:49.489Z,1011.68
2018-01-30T02:21:56.051Z,1011.71
2018-01-30T02:23:01.635Z,1011.68
2018-01-30T02:24:07.740Z,1011.66
2018-01-30T02:25:14.329Z,1011.62
2018-01-30T02:26:19.904Z,1011.69
2018-01-30T02:27:26.492Z,1011.68
2018-01-30T02:28:32.081Z,1011.65
2018-01-30T02:29:38.180Z,1011.61
2018-01-30T02:30:44.286Z,1011.62
2018-01-30T02:31:50.360Z,1011.61
2018-01-30T02:32:56.449Z,1011.61
2018-01-30T02:34:02.540Z,1011.60
2018-01-30T02:35:08.639Z,1011.64
2018-01-30T02:36:14.735Z,1011.62
2018-01-30T02:37:20.805Z,1011.62
2018-01-30T02:38:26.895Z,1011.62
2018-01-30T02:39:32.970Z,1011.69
2018-01-30T02:40:39.083Z,1011.62
2018-01-30T02:41:45.166Z,1011.70
2018-01-30T02:42:51.727Z,1011.76
2018-01-30T02:43:57.335Z,1011.80
2018-01-30T02:45:03.411Z,1011.81
2018-01-30T02:46:09.527Z,1011.80
2018-01-30T02:47:15.583Z,1011.91
2018-01-30T02:48:21.664Z,1011.92
2018-01-30T02:49:27.751Z,1011.94
2018-01-30T02:50:33.838Z,1011.90
2018-01-30T02:51:39.934Z,1011.90
2018-01-30T02:52:46.011Z,1011.93
2018-01-30T02:53:52.160Z,1011.87
2018-01-30T02:54:58.177Z,1011.87
2018-01-30T02:56:04.291Z,1011.83
2018-01-30T02:57:10.365Z,1011.84
2018-01-30T02:58:16.958Z,1011.83
2018-01-30T02:59:22.540Z,1011.84
2018-01-30T03:00:28.628Z,1011.81
2018-01-30T03:01:34.741Z,1011.81
2018-01-30T03:02:40.839Z,1011.77
2018-01-30T03:03:46.898Z,1011.73
2018-01-30T03:04:52.983Z,1011.74
2018-01-30T03:05:59.095Z,1011.76
2018-01-30T03:07:05.152Z,1011.75
2018-01-30T03:08:11.258Z,1011.76
2018-01-30T03:09:17.324Z,1011.81
2018-01-30T03:10:23.908Z,1011.83
2018-01-30T03:11:29.516Z,1011.76
2018-01-30T03:12:35.599Z,1011.86
2018-01-30T03:13:41.680Z,1011.80
2018-01-30T03:14:47.756Z,1011.80
2018-01-30T03:15:53.849Z,1011.79
2018-01-30T03:16:59.963Z,1011.81
2018-01-30T03:18:06.017Z,1011.84
2018-01-30T03:19:12.122Z,1011.81
2018-01-30T03:20:18.208Z,1011.82
2018-01-30T03:21:24.497Z,1011.80
2018-01-30T03:22:30.855Z,1011.82
2018-01-30T03:23:36.943Z,1011.78
2018-01-30T03:24:42.540Z,1011.79
2018-01-30T03:25:48.627Z,1011.79
2018-01-30T03:26:54.727Z,1011.82
2018-01-30T03:28:00.798Z,1011.76
2018-01-30T03:29:06.905Z,1011.76
2018-01-30T03:30:12.974Z,1011.76
2018-01-30T03:31:19.044Z,1011.73
2018-01-30T03:32:25.151Z,1011.75
2018-01-30T03:33:31.228Z,1011.72
2018-01-30T03:34:37.297Z,1011.70
2018-01-30T03:35:43.395Z,1011.71
2018-01-30T03:36:49.481Z,1011.77
2018-01-30T03:37:56.167Z,1011.73
2018-01-30T03:39:01.629Z,1011.75
2018-01-30T03:40:07.715Z,1011.82
2018-01-30T03:41:13.792Z,1011.82
2018-01-30T03:42:19.927Z,1011.86
2018-01-30T03:43:25.956Z,1011.83
2018-01-30T03:44:32.046Z,1011.86
2018-01-30T03:45:38.433Z,1011.83
2018-01-30T03:46:44.201Z,1011.91
2018-01-30T03:47:50.297Z,1011.87
2018-01-30T03:48:56.361Z,1011.88
2018-01-30T03:50:02.426Z,1011.84
2018-01-30T03:51:08.501Z,1011.85
2018-01-30T03:52:14.582Z,1011.89
2018-01-30T03:53:20.673Z,1011.78
2018-01-30T03:54:26.748Z,1011.85
2018-01-30T03:55:32.792Z,1011.82
2018-01-30T03:56:38.870Z,1011.84
2018-01-30T03:57:44.960Z,1011.84
2018-01-30T03:58:51.009Z,1011.77
2018-01-30T03:59:57.081Z,1011.79
2018-01-30T04:01:03.640Z,1011.78
2018-01-30T04:02:09.232Z,1011.92
2018-01-30T04:03:15.316Z,1011.92
2018-01-30T04:04:21.366Z,1011.95
2018-01-30T04:05:27.434Z,1011.96
2018-01-30T04:06:33.498Z,1011.95
2018-01-30T04:07:39.572Z,1011.94
2018-01-30T04:08:45.664Z,1011.94
2018-01-30T04:09:51.703Z,1011.97
2018-01-30T04:10:57.785Z,1011.94
2018-01-30T04:12:03.831Z,1011.94
2018-01-30T04:13:09.915Z,1011.88
2018-01-30T04:14:15.969Z,1011.92
2018-01-30T04:15:22.037Z,1011.91
2018-01-30T04:16:29.087Z,1012.02
2018-01-30T04:17:34.162Z,1011.95
2018-01-30T04:18:40.240Z,1011.93
2018-01-30T04:19:46.274Z,1011.96
2018-01-30T04:20:52.318Z,1011.98
2018-01-30T04:21:58.377Z,1012.03
2018-01-30T04:23:04.455Z,1012.04
2018-01-30T04:24:10.493Z,1012.06
2018-01-30T04:25:16.542Z,1012.08
2018-01-30T04:26:22.591Z,1012.08
2018-01-30T04:27:28.641Z,1012.07
2018-01-30T04:28:34.712Z,1012.09
2018-01-30T04:29:40.770Z,1012.07
2018-01-30T04:30:46.786Z,1012.05
2018-01-30T04:31:52.830Z,1012.04
2018-01-30T04:32:58.874Z,1012.03
2018-01-30T04:34:04.948Z,1012.02
2018-01-30T04:35:10.959Z,1012.00
2018-01-30T04:36:17.006Z,1012.00
2018-01-30T04:37:23.537Z,1012.02
2018-01-30T04:38:29.115Z,1012.02
2018-01-30T04:39:35.133Z,1012.03
2018-01-30T04:40:41.174Z,1012.01
2018-01-30T04:41:47.214Z,1012.04
2018-01-30T04:42:53.242Z,1012.09
2018-01-30T04:43:59.309Z,1012.04
2018-01-30T04:45:05.335Z,1012.07
2018-01-30T04:46:11.372Z,1012.09
2018-01-30T04:47:17.397Z,1012.11
2018-01-30T04:48:23.436Z,1012.13
2018-01-30T04:49:29.489Z,1012.12
2018-01-30T04:50:35.513Z,1012.12
2018-01-30T04:51:41.535Z,1012.12
2018-01-30T04:52:48.149Z,1012.16
2018-01-30T04:53:53.627Z,1012.22
2018-01-30T04:54:59.640Z,1012.29
2018-01-30T04:56:05.659Z,1012.30
2018-01-30T04:57:11.682Z,1012.26
2018-01-30T04:58:17.896Z,1012.27
2018-01-30T04:59:23.752Z,1012.26
2018-01-30T05:00:29.775Z,1012.26
2018-01-30T05:01:35.789Z,1012.27
2018-01-30T05:02:41.812Z,1012.27
2018-01-30T05:03:47.832Z,1012.31
2018-01-30T05:04:53.876Z,1012.28
2018-01-30T05:06:00.378Z,1012.23
2018-01-30T05:07:05.911Z,1012.26
2018-01-30T05:08:11.914Z,1012.26
2018-01-30T05:09:17.970Z,1012.29
2018-01-30T05:10:24.460Z,1012.31
2018-01-30T05:11:30.002Z,1012.31
2018-01-30T05:12:36.002Z,1012.32
2018-01-30T05:13:42.011Z,1012.37
2018-01-30T05:14:48.060Z,1012.43
2018-01-30T05:15:54.035Z,1012.45
2018-01-30T05:17:00.138Z,1012.48
2018-01-30T05:18:06.562Z,1012.49
2018-01-30T05:19:12.152Z,1012.48
2018-01-30T05:20:18.121Z,1012.48
2018-01-30T05:21:24.314Z,1012.52
2018-01-30T05:22:30.140Z,1012.52
2018-01-30T05:23:36.143Z,1012.50
2018-01-30T05:24:42.191Z,1012.51
2018-01-30T05:25:48.168Z,1012.54
2018-01-30T05:26:54.175Z,1012.47
2018-01-30T05:28:00.190Z,1012.43
2018-01-30T05:29:06.202Z,1012.46
2018-01-30T05:30:12.245Z,1012.42
2018-01-30T05:31:18.209Z,1012.41
2018-01-30T05:32:24.237Z,1012.37
2018-01-30T05:33:30.228Z,1012.39
2018-01-30T05:34:36.252Z,1012.38
2018-01-30T05:35:42.282Z,1012.42
2018-01-30T05:36:48.248Z,1012.41
2018-01-30T05:37:54.254Z,1012.44
2018-01-30T05:39:00.281Z,1012.47
2018-01-30T05:40:06.298Z,1012.42
2018-01-30T05:41:12.263Z,1012.44
2018-01-30T05:42:18.326Z,1012.45
2018-01-30T05:43:24.286Z,1012.48
2018-01-30T05:44:30.808Z,1012.52
2018-01-30T05:45:36.317Z,1012.51
2018-01-30T05:46:42.277Z,1012.49
2018-01-30T05:47:48.286Z,1012.51
2018-01-30T05:48:54.468Z,1012.51
2018-01-30T05:50:00.278Z,1012.54
2018-01-30T05:51:06.304Z,1012.51
2018-01-30T05:52:12.279Z,1012.53
2018-01-30T05:53:18.291Z,1012.56
2018-01-30T05:54:25.281Z,1012.51
2018-01-30T05:55:30.306Z,1012.50
2018-01-30T05:56:36.298Z,1012.47
2018-01-30T05:57:42.786Z,1012.54
2018-01-30T05:58:48.786Z,1012.50
2018-01-30T05:59:54.283Z,1012.50
2018-01-30T06:01:00.305Z,1012.50
2018-01-30T06:02:06.265Z,1012.48
2018-01-30T06:03:12.281Z,1012.51
2018-01-30T06:04:18.760Z,1012.45
2018-01-30T06:05:24.266Z,1012.40
2018-01-30T06:06:30.276Z,1012.43
2018-01-30T06:07:36.263Z,1012.38
2018-01-30T06:08:42.268Z,1012.35
2018-01-30T06:09:48.781Z,1012.36
2018-01-30T06:10:54.256Z,1012.36
2018-01-30T06:12:00.231Z,1012.31
2018-01-30T06:13:06.233Z,1012.37
2018-01-30T06:14:12.212Z,1012.35
2018-01-30T06:15:18.224Z,1012.41
2018-01-30T06:16:24.215Z,1012.36
2018-01-30T06:17:30.192Z,1012.42
2018-01-30T06:18:36.177Z,1012.36
2018-01-30T06:19:42.178Z,1012.35
2018-01-30T06:20:48.184Z,1012.39
2018-01-30T06:21:54.161Z,1012.38
2018-01-30T06:23:00.143Z,1012.47
2018-01-30T06:24:06.126Z,1012.48
2018-01-30T06:25:12.112Z,1012.47
2018-01-30T06:26:18.130Z,1012.46
2018-01-30T06:27:24.156Z,1012.50
2018-01-30T06:28:30.142Z,1012.54
2018-01-30T06:29:36.141Z,1012.61
2018-01-30T06:30:42.071Z,1012.60
2018-01-30T06:31:48.038Z,1012.58
2018-01-30T06:32:54.034Z,1012.60
2018-01-30T06:34:00.016Z,1012.59
2018-01-30T06:35:05.985Z,1012.63
2018-01-30T06:36:12.492Z,1012.57
2018-01-30T06:37:17.974Z,1012.58
2018-01-30T06:38:24.429Z,1012.59
2018-01-30T06:39:29.915Z,1012.62
2018-01-30T06:40:35.895Z,1012.60
2018-01-30T06:41:41.897Z,1012.61
2018-01-30T06:42:47.851Z,1012.57
2018-01-30T06:43:54.346Z,1012.56
2018-01-30T06:45:00.306Z,1012.50
2018-01-30T06:46:05.817Z,1012.45
2018-01-30T06:47:11.786Z,1012.50
2018-01-30T06:48:17.757Z,1012.57
2018-01-30T06:49:23.738Z,1012.54
2018-01-30T06:50:29.720Z,1012.53
2018-01-30T06:51:35.727Z,1012.57
2018-01-30T06:52:41.696Z,1012.53
2018-01-30T06:53:47.675Z,1012.55
2018-01-30T06:54:53.668Z,1012.56
2018-01-30T06:55:59.668Z,1012.60
2018-01-30T06:57:05.633Z,1012.63
2018-01-30T06:58:12.142Z,1012.64
2018-01-30T06:59:17.597Z,1012.65
2018-01-30T07:00:23.781Z,1012.70
2018-01-30T07:01:29.597Z,1012.76
2018-01-30T07:02:35.562Z,1012.78
2018-01-30T07:03:42.040Z,1012.81
2018-01-30T07:04:47.547Z,1012.81
2018-01-30T07:05:53.535Z,1012.85
2018-01-30T07:06:59.511Z,1012.89
2018-01-30T07:08:05.496Z,1012.82
2018-01-30T07:09:11.485Z,1012.79
2018-01-30T07:10:17.984Z,1012.81
2018-01-30T07:11:23.481Z,1012.84
2018-01-30T07:12:29.954Z,1012.94
2018-01-30T07:13:35.936Z,1013.00
2018-01-30T07:14:41.465Z,1012.98
2018-01-30T07:15:47.915Z,1013.00
2018-01-30T07:16:53.963Z,1012.97
2018-01-30T07:17:59.909Z,1013.00
2018-01-30T07:19:05.418Z,1013.03
2018-01-30T07:20:11.403Z,1013.04
2018-01-30T07:21:17.434Z,1013.04
2018-01-30T07:22:23.394Z,1012.99
2018-01-30T07:23:29.400Z,1012.95
2018-01-30T07:24:35.400Z,1012.97
2018-01-30T07:25:41.403Z,1012.92
2018-01-30T07:26:47.914Z,1012.96
2018-01-30T07:27:53.415Z,1012.97
2018-01-30T07:28:59.910Z,1012.94
2018-01-30T07:30:05.406Z,1013.00
2018-01-30T07:31:11.439Z,1012.98
2018-01-30T07:32:17.423Z,1013.01
2018-01-30T07:33:23.428Z,1013.02
2018-01-30T07:34:29.420Z,1013.00
2018-01-30T07:35:35.436Z,1013.02
2018-01-30T07:36:41.467Z,1013.03
2018-01-30T07:37:47.453Z,1013.12
2018-01-30T07:38:53.463Z,1013.18
2018-01-30T07:39:59.472Z,1013.22
2018-01-30T07:41:05.510Z,1013.23
2018-01-30T07:42:11.482Z,1013.14
2018-01-30T07:43:17.979Z,1013.06
2018-01-30T07:44:23.508Z,1013.05
2018-01-30T07:45:30.518Z,1012.99
2018-01-30T07:46:35.542Z,1012.97
2018-01-30T07:47:41.524Z,1012.93
2018-01-30T07:48:47.539Z,1012.89
2018-01-30T07:49:54.036Z,1012.87
2018-01-30T07:51:00.072Z,1012.90
2018-01-30T07:52:06.140Z,1012.92
2018-01-30T07:53:11.556Z,1012.87
2018-01-30T07:54:17.577Z,1012.84
2018-01-30T07:55:23.582Z,1012.85
2018-01-30T07:56:30.175Z,1012.85
2018-01-30T07:57:35.611Z,1012.91
2018-01-30T07:58:42.144Z,1012.91
2018-01-30T07:59:47.613Z,1012.90
2018-01-30T08:00:53.640Z,1012.90
2018-01-30T08:02:00.163Z,1012.98
2018-01-30T08:03:05.649Z,1013.04
2018-01-30T08:04:11.671Z,1013.10
2018-01-30T08:05:17.674Z,1013.08
2018-01-30T08:06:24.207Z,1013.11
2018-01-30T08:07:30.199Z,1013.12
2018-01-30T08:08:35.723Z,1013.16
2018-01-30T08:09:42.225Z,1013.16
2018-01-30T08:10:47.754Z,1013.12
2018-01-30T08:11:54.299Z,1013.10
2018-01-30T08:12:59.791Z,1013.08
2018-01-30T08:14:06.310Z,1013.03
2018-01-30T08:15:12.316Z,1012.98
2018-01-30T08:16:18.369Z,1013.00
2018-01-30T08:17:23.861Z,1013.04
2018-01-30T08:18:30.377Z,1013.05
2018-01-30T08:19:35.919Z,1012.97
2018-01-30T08:20:41.955Z,1012.91
2018-01-30T08:21:47.981Z,1012.89
2018-01-30T08:22:54.012Z,1012.93
2018-01-30T08:24:00.510Z,1012.92
2018-01-30T08:25:06.040Z,1012.92
2018-01-30T08:26:12.170Z,1012.87
2018-01-30T08:27:18.155Z,1012.90
2018-01-30T08:28:24.127Z,1012.90
2018-01-30T08:29:30.150Z,1012.99
2018-01-30T08:30:36.186Z,1012.97
2018-01-30T08:31:42.241Z,1012.95
2018-01-30T08:32:48.267Z,1012.97
2018-01-30T08:33:54.294Z,1012.98
2018-01-30T08:35:00.827Z,1012.97
2018-01-30T08:36:06.394Z,1012.96
2018-01-30T08:37:12.438Z,1012.96
2018-01-30T08:38:18.467Z,1013.03
2018-01-30T08:39:24.998Z,1013.01
2018-01-30T08:40:30.568Z,1013.05
2018-01-30T08:41:37.136Z,1013.06
2018-01-30T08:42:43.155Z,1013.07
2018-01-30T08:43:48.709Z,1013.06
2018-01-30T08:44:55.252Z,1013.05
2018-01-30T08:46:00.810Z,1013.06
2018-01-30T08:47:06.895Z,1013.05
2018-01-30T08:48:13.424Z,1013.05
2018-01-30T08:49:18.993Z,1013.04
2018-01-30T08:50:25.060Z,1013.04
2018-01-30T08:51:31.146Z,1012.97
2018-01-30T08:52:37.211Z,1013.00
2018-01-30T08:53:43.274Z,1013.00
2018-01-30T08:54:49.843Z,1012.99
2018-01-30T08:55:55.421Z,1013.00
2018-01-30T08:57:01.522Z,1012.99
2018-01-30T08:58:07.570Z,1012.99
2018-01-30T08:59:13.660Z,1012.98
2018-01-30T09:00:19.735Z,1012.96
2018-01-30T09:01:25.865Z,1012.94
2018-01-30T09:02:31.908Z,1012.92
2018-01-30T09:03:37.989Z,1012.97
2018-01-30T09:04:44.071Z,1013.03
2018-01-30T09:05:50.150Z,1013.01
2018-01-30T09:06:56.274Z,1012.98
2018-01-30T09:08:02.832Z,1012.99
2018-01-30T09:09:08.409Z,1012.99
2018-01-30T09:10:14.504Z,1013.03
2018-01-30T09:11:20.606Z,1013.05
2018-01-30T09:12:26.665Z,1013.07
2018-01-30T09:13:32.763Z,1013.08
2018-01-30T09:14:38.858Z,1013.06
2018-01-30T09:15:44.937Z,1013.08
2018-01-30T09:16:51.036Z,1012.99
2018-01-30T09:17:57.113Z,1012.97
2018-01-30T09:19:03.196Z,1012.96
2018-01-30T09:20:09.311Z,1012.94
2018-01-30T09:21:15.889Z,1012.94
2018-01-30T09:22:21.501Z,1012.91
2018-01-30T09:23:27.577Z,1012.91
2018-01-30T09:24:34.180Z,1012.90
2018-01-30T09:25:39.757Z,1012.91
2018-01-30T09:26:45.879Z,1012.93
2018-01-30T09:27:51.948Z,1012.96
2018-01-30T09:28:58.043Z,1012.97
2018-01-30T09:30:04.152Z,1013.01
2018-01-30T09:31:10.719Z,1013.00
2018-01-30T09:32:16.353Z,1013.05
2018-01-30T09:33:22.418Z,1013.07
2018-01-30T09:34:29.027Z,1013.07
2018-01-30T09:35:35.108Z,1013.10
2018-01-30T09:36:41.232Z,1013.08
2018-01-30T09:37:47.311Z,1013.03
2018-01-30T09:38:52.933Z,1013.01
2018-01-30T09:39:59.036Z,1013.01
2018-01-30T09:41:05.640Z,1012.99
2018-01-30T09:42:11.273Z,1012.93
2018-01-30T09:43:17.366Z,1012.95
2018-01-30T09:44:23.503Z,1012.89
2018-01-30T09:45:29.623Z,1012.94
2018-01-30T09:46:35.785Z,1012.91
2018-01-30T09:47:41.864Z,1012.91
2018-01-30T09:48:47.994Z,1012.93
2018-01-30T09:49:54.135Z,1012.97
2018-01-30T09:51:00.770Z,1012.93
2018-01-30T09:52:06.440Z,1012.87
2018-01-30T09:53:12.556Z,1012.84
2018-01-30T09:54:18.712Z,1012.80
2018-01-30T09:55:24.860Z,1012.81
2018-01-30T09:56:31.032Z,1012.76
2018-01-30T09:57:37.176Z,1012.77
2018-01-30T09:58:43.340Z,1012.78
2018-01-30T09:59:49.493Z,1012.79
2018-01-30T10:00:55.659Z,1012.76
2018-01-30T10:02:01.829Z,1012.81
2018-01-30T10:03:07.978Z,1012.79
2018-01-30T10:04:14.139Z,1012.75
2018-01-30T10:05:20.303Z,1012.73
2018-01-30T10:06:26.458Z,1012.78
2018-01-30T10:07:32.640Z,1012.80
2018-01-30T10:08:38.774Z,1012.86
2018-01-30T10:09:44.947Z,1012.82
2018-01-30T10:10:51.607Z,1012.84
2018-01-30T10:11:57.284Z,1012.84
2018-01-30T10:13:03.920Z,1012.84
2018-01-30T10:14:09.604Z,1012.82
2018-01-30T10:15:15.774Z,1012.81
2018-01-30T10:16:21.933Z,1012.80
2018-01-30T10:17:28.136Z,1012.78
2018-01-30T10:18:34.773Z,1012.75
2018-01-30T10:19:40.446Z,1012.74
2018-01-30T10:20:46.632Z,1012.77
2018-01-30T10:21:52.824Z,1012.76
2018-01-30T10:22:58.972Z,1012.77
2018-01-30T10:24:05.154Z,1012.74
2018-01-30T10:25:11.321Z,1012.73
2018-01-30T10:26:17.498Z,1012.78
2018-01-30T10:27:23.727Z,1012.73
2018-01-30T10:28:29.868Z,1012.72
2018-01-30T10:29:36.154Z,1012.65
2018-01-30T10:30:42.753Z,1012.63
2018-01-30T10:31:48.489Z,1012.65
2018-01-30T10:32:54.646Z,1012.65
2018-01-30T10:34:00.830Z,1012.68
2018-01-30T10:35:07.043Z,1012.69
2018-01-30T10:36:13.225Z,1012.66
2018-01-30T10:37:19.447Z,1012.64
2018-01-30T10:38:25.638Z,1012.68
2018-01-30T10:39:31.815Z,1012.64
2018-01-30T10:40:38.001Z,1012.63
2018-01-30T10:41:44.219Z,1012.57
2018-01-30T10:42:50.412Z,1012.59
2018-01-30T10:43:56.594Z,1012.54
2018-01-30T10:45:03.302Z,1012.52
2018-01-30T10:46:08.998Z,1012.52
2018-01-30T10:47:16.233Z,1012.51
2018-01-30T10:48:21.402Z,1012.52
2018-01-30T10:49:27.617Z,1012.48
2018-01-30T10:50:34.309Z,1012.45
2018-01-30T10:51:40.064Z,1012.44
2018-01-30T10:52:46.251Z,1012.48
2018-01-30T10:53:52.456Z,1012.49
2018-01-30T10:54:58.688Z,1012.48
2018-01-30T10:56:04.905Z,1012.47
2018-01-30T10:57:11.140Z,1012.39
2018-01-30T10:58:17.857Z,1012.37
2018-01-30T10:59:23.581Z,1012.35
2018-01-30T11:00:29.867Z,1012.29
2018-01-30T11:01:36.050Z,1012.27
2018-01-30T11:02:42.301Z,1012.22
2018-01-30T11:03:48.527Z,1012.22
2018-01-30T11:04:55.243Z,1012.23
2018-01-30T11:06:00.984Z,1012.22
2018-01-30T11:07:07.748Z,1012.05
2018-01-30T11:08:13.966Z,1012.05
2018-01-30T11:09:19.723Z,1012.04
2018-01-30T11:10:25.966Z,1012.04
2018-01-30T11:11:32.212Z,1012.06
2018-01-30T11:12:38.979Z,1012.00
2018-01-30T11:13:44.723Z,1011.93
2018-01-30T11:14:51.465Z,1011.94
2018-01-30T11:15:57.223Z,1011.95
2018-01-30T11:17:03.513Z,1011.91
2018-01-30T11:18:09.739Z,1011.96
2018-01-30T11:19:16.002Z,1011.91
2018-01-30T11:20:22.256Z,1011.92
2018-01-30T11:21:28.507Z,1011.88
2018-01-30T11:22:34.790Z,1011.87
2018-01-30T11:23:41.054Z,1011.89
2018-01-30T11:24:47.281Z,1011.79
2018-01-30T11:25:53.592Z,1011.80
2018-01-30T11:27:00.347Z,1011.81
2018-01-30T11:28:06.534Z,1011.79
2018-01-30T11:29:12.312Z,1011.76
2018-01-30T11:30:18.563Z,1011.73
2018-01-30T11:31:24.824Z,1011.78
2018-01-30T11:32:31.104Z,1011.77
2018-01-30T11:33:37.328Z,1011.83
2018-01-30T11:34:43.606Z,1011.77
2018-01-30T11:35:49.862Z,1011.76
2018-01-30T11:36:56.641Z,1011.73
2018-01-30T11:38:02.409Z,1011.69
2018-01-30T11:39:08.654Z,1011.68
2018-01-30T11:40:14.915Z,1011.67
2018-01-30T11:41:21.167Z,1011.71
2018-01-30T11:42:27.922Z,1011.72
2018-01-30T11:43:33.648Z,1011.72
2018-01-30T11:44:39.899Z,1011.75
2018-01-30T11:45:46.130Z,1011.69
2018-01-30T11:46:52.370Z,1011.64
2018-01-30T11:47:58.625Z,1011.55
2018-01-30T11:49:04.838Z,1011.55
2018-01-30T11:50:11.068Z,1011.51
2018-01-30T11:51:17.292Z,1011.53
2018-01-30T11:52:23.546Z,1011.50
2018-01-30T11:53:30.239Z,1011.51
2018-01-30T11:54:35.978Z,1011.47
2018-01-30T11:55:42.698Z,1011.42
2018-01-30T11:56:48.424Z,1011.35
2018-01-30T11:57:54.684Z,1011.34
2018-01-30T11:59:00.892Z,1011.31
2018-01-30T12:00:07.119Z,1011.34
2018-01-30T12:01:13.371Z,1011.33
2018-01-30T12:02:19.639Z,1011.22
2018-01-30T12:03:25.905Z,1011.14
2018-01-30T12:04:32.183Z,1011.09
2018-01-30T12:05:38.502Z,1011.07
2018-01-30T12:06:44.804Z,1011.04
2018-01-30T12:07:51.153Z,1010.94
2018-01-30T12:08:57.467Z,1010.95
2018-01-30T12:10:03.795Z,1010.93
2018-01-30T12:11:10.634Z,1010.96
2018-01-30T12:12:16.997Z,1010.81
2018-01-30T12:13:22.825Z,1010.81
2018-01-30T12:14:29.187Z,1010.78
2018-01-30T12:15:35.515Z,1010.76
2018-01-30T12:16:41.847Z,1010.76
2018-01-30T12:17:48.188Z,1010.78
2018-01-30T12:18:54.496Z,1010.80
2018-01-30T12:20:00.806Z,1010.84
2018-01-30T12:21:07.123Z,1010.80
2018-01-30T12:22:13.479Z,1010.78
2018-01-30T12:23:20.310Z,1010.80
2018-01-30T12:24:26.087Z,1010.73
2018-01-30T12:25:32.408Z,1010.77
2018-01-30T12:26:38.708Z,1010.76
2018-01-30T12:27:45.045Z,1010.78
2018-01-30T12:28:51.330Z,1010.75
2018-01-30T12:29:57.634Z,1010.78
2018-01-30T12:31:03.979Z,1010.76
2018-01-30T12:32:10.773Z,1010.72
2018-01-30T12:33:16.558Z,1010.72
2018-01-30T12:34:22.855Z,1010.67
2018-01-30T12:35:29.162Z,1010.62
2018-01-30T12:36:35.457Z,1010.61
2018-01-30T12:37:41.777Z,1010.58
2018-01-30T12:38:48.142Z,1010.57
2018-01-30T12:39:54.365Z,1010.58
2018-01-30T12:41:00.668Z,1010.56
2018-01-30T12:42:06.968Z,1010.55
2018-01-30T12:43:13.307Z,1010.54
2018-01-30T12:44:19.571Z,1010.52
2018-01-30T12:45:25.871Z,1010.50
2018-01-30T12:46:32.171Z,1010.53
2018-01-30T12:47:38.505Z,1010.54
2018-01-30T12:48:44.807Z,1010.52
2018-01-30T12:49:51.103Z,1010.58
2018-01-30T12:50:57.434Z,1010.47
2018-01-30T12:52:03.764Z,1010.44
2018-01-30T12:53:10.127Z,1010.40
2018-01-30T12:54:16.459Z,1010.40
2018-01-30T12:55:22.809Z,1010.39
2018-01-30T12:56:29.658Z,1010.42
2018-01-30T12:57:35.528Z,1010.40
2018-01-30T12:58:41.837Z,1010.35
2018-01-30T12:59:48.174Z,1010.38
2018-01-30T13:00:54.520Z,1010.33
2018-01-30T13:02:00.845Z,1010.37
2018-01-30T13:03:07.192Z,1010.37
2018-01-30T13:04:13.511Z,1010.40
2018-01-30T13:05:19.835Z,1010.35
2018-01-30T13:06:26.171Z,1010.27
2018-01-30T13:07:32.542Z,1010.25
2018-01-30T13:08:38.883Z,1010.25
2018-01-30T13:09:45.207Z,1010.26
2018-01-30T13:10:51.563Z,1010.22
2018-01-30T13:11:57.934Z,1010.21
2018-01-30T13:13:04.299Z,1010.18
2018-01-30T13:14:10.647Z,1010.20
2018-01-30T13:15:16.990Z,1010.24
2018-01-30T13:16:23.345Z,1010.30
2018-01-30T13:17:30.207Z,1010.27
2018-01-30T13:18:36.035Z,1010.19
2018-01-30T13:19:42.385Z,1010.25